sensor_id;sensor_type;location;lat;lon;timestamp;P1;durP1;ratioP1;P2;durP2;ratioP2
21084;SDS011;72320;50.082;20.000;2024-01-30T00:00:19;14.70;;;8.20;;
21084;SDS011;72320;50.082;20.000;2024-01-30T00:02:46;14.90;;;7.70;;
21084;SDS011;72320;50.082;20.000;2024-01-30T00:05:12;10.10;;;7.40;;
21084;SDS011;72320;50.082;20.000;2024-01-30T00:07:38;16.10;;;9.20;;
21084;SDS011;72320;50.082;20.000;2024-01-30T00:10:04;17.10;;;8.50;;
21084;SDS011;72320;50.082;20.000;2024-01-30T00:12:31;16.80;;;9.20;;
21084;SDS011;72320;50.082;20.000;2024-01-30T00:14:57;14.30;;;9.50;;
21084;SDS011;72320;50.082;20.000;2024-01-30T00:17:23;19.30;;;10.10;;
21084;SDS011;72320;50.082;20.000;2024-01-30T00:19:50;15.60;;;8.10;;
21084;SDS011;72320;50.082;20.000;2024-01-30T00:22:16;12.20;;;8.50;;
21084;SDS011;72320;50.082;20.000;2024-01-30T00:24:42;11.70;;;7.90;;
21084;SDS011;72320;50.082;20.000;2024-01-30T00:27:08;18.30;;;10.30;;
21084;SDS011;72320;50.082;20.000;2024-01-30T00:29:34;20.60;;;11.00;;
21084;SDS011;72320;50.082;20.000;2024-01-30T00:31:59;15.30;;;8.60;;
21084;SDS011;72320;50.082;20.000;2024-01-30T00:34:25;14.50;;;8.60;;
21084;SDS011;72320;50.082;20.000;2024-01-30T00:36:51;14.00;;;8.00;;
21084;SDS011;72320;50.082;20.000;2024-01-30T00:39:17;13.30;;;8.60;;
21084;SDS011;72320;50.082;20.000;2024-01-30T00:41:45;19.30;;;10.40;;
21084;SDS011;72320;50.082;20.000;2024-01-30T00:44:10;17.10;;;11.40;;
21084;SDS011;72320;50.082;20.000;2024-01-30T00:46:36;16.30;;;9.20;;
21084;SDS011;72320;50.082;20.000;2024-01-30T00:49:02;14.30;;;9.20;;
21084;SDS011;72320;50.082;20.000;2024-01-30T00:51:28;16.70;;;9.90;;
21084;SDS011;72320;50.082;20.000;2024-01-30T00:53:55;18.20;;;10.50;;
21084;SDS011;72320;50.082;20.000;2024-01-30T00:56:21;18.50;;;10.30;;
21084;SDS011;72320;50.082;20.000;2024-01-30T00:58:46;20.10;;;10.20;;
21084;SDS011;72320;50.082;20.000;2024-01-30T01:01:12;26.70;;;11.60;;
21084;SDS011;72320;50.082;20.000;2024-01-30T01:03:38;12.20;;;8.90;;
21084;SDS011;72320;50.082;20.000;2024-01-30T01:06:06;26.30;;;11.80;;
21084;SDS011;72320;50.082;20.000;2024-01-30T01:08:32;17.30;;;11.20;;
21084;SDS011;72320;50.082;20.000;2024-01-30T01:10:57;25.90;;;11.60;;
21084;SDS011;72320;50.082;20.000;2024-01-30T01:13:23;19.80;;;11.20;;
21084;SDS011;72320;50.082;20.000;2024-01-30T01:15:49;17.20;;;10.30;;
21084;SDS011;72320;50.082;20.000;2024-01-30T01:18:14;17.10;;;11.10;;
21084;SDS011;72320;50.082;20.000;2024-01-30T01:20:41;19.20;;;10.40;;
21084;SDS011;72320;50.082;20.000;2024-01-30T01:23:07;16.20;;;9.60;;
21084;SDS011;72320;50.082;20.000;2024-01-30T01:25:32;18.00;;;9.30;;
21084;SDS011;72320;50.082;20.000;2024-01-30T01:27:58;14.70;;;9.80;;
21084;SDS011;72320;50.082;20.000;2024-01-30T01:30:26;18.60;;;9.50;;
21084;SDS011;72320;50.082;20.000;2024-01-30T01:32:53;15.60;;;9.90;;
21084;SDS011;72320;50.082;20.000;2024-01-30T01:35:23;15.80;;;9.40;;
21084;SDS011;72320;50.082;20.000;2024-01-30T01:37:53;16.50;;;9.60;;
21084;SDS011;72320;50.082;20.000;2024-01-30T01:40:25;15.00;;;9.90;;
21084;SDS011;72320;50.082;20.000;2024-01-30T01:42:53;11.90;;;8.50;;
21084;SDS011;72320;50.082;20.000;2024-01-30T01:45:20;15.10;;;8.30;;
21084;SDS011;72320;50.082;20.000;2024-01-30T01:47:55;16.20;;;9.80;;
21084;SDS011;72320;50.082;20.000;2024-01-30T01:50:21;16.00;;;9.60;;
21084;SDS011;72320;50.082;20.000;2024-01-30T01:52:48;14.80;;;7.80;;
21084;SDS011;72320;50.082;20.000;2024-01-30T01:55:16;13.90;;;9.20;;
21084;SDS011;72320;50.082;20.000;2024-01-30T01:57:47;18.20;;;9.00;;
21084;SDS011;72320;50.082;20.000;2024-01-30T02:00:13;12.70;;;7.60;;
21084;SDS011;72320;50.082;20.000;2024-01-30T02:02:41;16.90;;;7.60;;
21084;SDS011;72320;50.082;20.000;2024-01-30T02:05:09;18.10;;;9.60;;
21084;SDS011;72320;50.082;20.000;2024-01-30T02:07:34;16.80;;;10.00;;
21084;SDS011;72320;50.082;20.000;2024-01-30T02:10:00;17.50;;;11.20;;
21084;SDS011;72320;50.082;20.000;2024-01-30T02:12:26;18.00;;;10.50;;
21084;SDS011;72320;50.082;20.000;2024-01-30T02:14:52;15.80;;;9.10;;
21084;SDS011;72320;50.082;20.000;2024-01-30T02:17:18;13.20;;;9.80;;
21084;SDS011;72320;50.082;20.000;2024-01-30T02:19:44;22.40;;;10.40;;
21084;SDS011;72320;50.082;20.000;2024-01-30T02:22:10;20.70;;;10.20;;
21084;SDS011;72320;50.082;20.000;2024-01-30T02:24:36;15.90;;;9.60;;
21084;SDS011;72320;50.082;20.000;2024-01-30T02:27:02;26.10;;;10.30;;
21084;SDS011;72320;50.082;20.000;2024-01-30T02:29:28;20.80;;;10.20;;
21084;SDS011;72320;50.082;20.000;2024-01-30T02:31:53;21.80;;;10.40;;
21084;SDS011;72320;50.082;20.000;2024-01-30T02:34:19;19.10;;;11.20;;
21084;SDS011;72320;50.082;20.000;2024-01-30T02:36:45;16.50;;;10.50;;
21084;SDS011;72320;50.082;20.000;2024-01-30T02:39:11;17.00;;;10.60;;
21084;SDS011;72320;50.082;20.000;2024-01-30T02:41:37;19.90;;;11.00;;
21084;SDS011;72320;50.082;20.000;2024-01-30T02:44:03;23.90;;;11.00;;
21084;SDS011;72320;50.082;20.000;2024-01-30T02:46:29;18.60;;;10.20;;
21084;SDS011;72320;50.082;20.000;2024-01-30T02:48:55;22.90;;;11.00;;
21084;SDS011;72320;50.082;20.000;2024-01-30T02:51:21;19.10;;;11.10;;
21084;SDS011;72320;50.082;20.000;2024-01-30T02:53:47;13.60;;;8.70;;
21084;SDS011;72320;50.082;20.000;2024-01-30T02:56:13;22.30;;;11.80;;
21084;SDS011;72320;50.082;20.000;2024-01-30T02:58:39;17.30;;;9.90;;
21084;SDS011;72320;50.082;20.000;2024-01-30T03:01:06;17.70;;;11.00;;
21084;SDS011;72320;50.082;20.000;2024-01-30T03:03:32;15.80;;;10.20;;
21084;SDS011;72320;50.082;20.000;2024-01-30T03:06:00;16.80;;;10.20;;
21084;SDS011;72320;50.082;20.000;2024-01-30T03:08:27;18.60;;;10.50;;
21084;SDS011;72320;50.082;20.000;2024-01-30T03:10:53;19.70;;;11.10;;
21084;SDS011;72320;50.082;20.000;2024-01-30T03:13:19;14.30;;;9.00;;
21084;SDS011;72320;50.082;20.000;2024-01-30T03:15:45;13.00;;;8.50;;
21084;SDS011;72320;50.082;20.000;2024-01-30T03:18:11;20.60;;;10.90;;
21084;SDS011;72320;50.082;20.000;2024-01-30T03:20:37;18.60;;;9.50;;
21084;SDS011;72320;50.082;20.000;2024-01-30T03:23:03;17.60;;;9.60;;
21084;SDS011;72320;50.082;20.000;2024-01-30T03:25:29;18.00;;;10.00;;
21084;SDS011;72320;50.082;20.000;2024-01-30T03:27:54;17.30;;;10.80;;
21084;SDS011;72320;50.082;20.000;2024-01-30T03:30:20;19.70;;;10.40;;
21084;SDS011;72320;50.082;20.000;2024-01-30T03:32:46;25.80;;;11.10;;
21084;SDS011;72320;50.082;20.000;2024-01-30T03:35:12;23.10;;;11.50;;
21084;SDS011;72320;50.082;20.000;2024-01-30T03:37:37;20.80;;;12.10;;
21084;SDS011;72320;50.082;20.000;2024-01-30T03:40:03;20.70;;;10.50;;
21084;SDS011;72320;50.082;20.000;2024-01-30T03:42:29;18.80;;;10.10;;
21084;SDS011;72320;50.082;20.000;2024-01-30T03:44:56;19.90;;;11.20;;
21084;SDS011;72320;50.082;20.000;2024-01-30T03:47:22;16.60;;;10.70;;
21084;SDS011;72320;50.082;20.000;2024-01-30T03:49:48;11.30;;;7.50;;
21084;SDS011;72320;50.082;20.000;2024-01-30T03:52:13;18.80;;;8.80;;
21084;SDS011;72320;50.082;20.000;2024-01-30T03:54:39;21.90;;;11.30;;
21084;SDS011;72320;50.082;20.000;2024-01-30T03:57:05;19.90;;;11.00;;
21084;SDS011;72320;50.082;20.000;2024-01-30T03:59:31;18.60;;;10.40;;
21084;SDS011;72320;50.082;20.000;2024-01-30T04:01:56;17.00;;;10.10;;
21084;SDS011;72320;50.082;20.000;2024-01-30T04:04:22;20.20;;;10.80;;
21084;SDS011;72320;50.082;20.000;2024-01-30T04:06:48;16.60;;;9.40;;
21084;SDS011;72320;50.082;20.000;2024-01-30T04:09:14;16.50;;;8.50;;
21084;SDS011;72320;50.082;20.000;2024-01-30T04:11:41;19.20;;;10.70;;
21084;SDS011;72320;50.082;20.000;2024-01-30T04:14:08;23.20;;;11.70;;
21084;SDS011;72320;50.082;20.000;2024-01-30T04:16:34;22.90;;;11.50;;
21084;SDS011;72320;50.082;20.000;2024-01-30T04:19:00;16.30;;;11.10;;
21084;SDS011;72320;50.082;20.000;2024-01-30T04:21:25;18.80;;;10.90;;
21084;SDS011;72320;50.082;20.000;2024-01-30T04:23:51;17.90;;;10.90;;
21084;SDS011;72320;50.082;20.000;2024-01-30T04:26:17;18.50;;;10.40;;
21084;SDS011;72320;50.082;20.000;2024-01-30T04:28:44;17.30;;;9.90;;
21084;SDS011;72320;50.082;20.000;2024-01-30T04:31:10;17.30;;;10.60;;
21084;SDS011;72320;50.082;20.000;2024-01-30T04:33:36;15.80;;;10.40;;
21084;SDS011;72320;50.082;20.000;2024-01-30T04:36:03;17.60;;;9.30;;
21084;SDS011;72320;50.082;20.000;2024-01-30T04:38:30;14.00;;;9.40;;
21084;SDS011;72320;50.082;20.000;2024-01-30T04:40:57;19.50;;;10.30;;
21084;SDS011;72320;50.082;20.000;2024-01-30T04:43:23;18.40;;;9.90;;
21084;SDS011;72320;50.082;20.000;2024-01-30T04:45:49;22.50;;;11.60;;
21084;SDS011;72320;50.082;20.000;2024-01-30T04:48:15;19.30;;;11.20;;
21084;SDS011;72320;50.082;20.000;2024-01-30T04:50:41;20.00;;;10.90;;
21084;SDS011;72320;50.082;20.000;2024-01-30T04:53:07;12.20;;;8.80;;
21084;SDS011;72320;50.082;20.000;2024-01-30T04:55:34;19.80;;;11.70;;
21084;SDS011;72320;50.082;20.000;2024-01-30T04:58:01;20.00;;;9.10;;
21084;SDS011;72320;50.082;20.000;2024-01-30T05:00:27;17.30;;;10.70;;
21084;SDS011;72320;50.082;20.000;2024-01-30T05:02:55;16.80;;;10.20;;
21084;SDS011;72320;50.082;20.000;2024-01-30T05:05:21;15.80;;;10.00;;
21084;SDS011;72320;50.082;20.000;2024-01-30T05:07:47;17.70;;;9.10;;
21084;SDS011;72320;50.082;20.000;2024-01-30T05:10:13;19.80;;;10.20;;
21084;SDS011;72320;50.082;20.000;2024-01-30T05:12:39;17.90;;;9.80;;
21084;SDS011;72320;50.082;20.000;2024-01-30T05:15:06;15.20;;;10.00;;
21084;SDS011;72320;50.082;20.000;2024-01-30T05:17:32;15.50;;;10.20;;
21084;SDS011;72320;50.082;20.000;2024-01-30T05:19:58;21.30;;;10.90;;
21084;SDS011;72320;50.082;20.000;2024-01-30T05:22:24;22.20;;;11.20;;
21084;SDS011;72320;50.082;20.000;2024-01-30T05:24:50;16.70;;;10.50;;
21084;SDS011;72320;50.082;20.000;2024-01-30T05:27:15;19.70;;;9.90;;
21084;SDS011;72320;50.082;20.000;2024-01-30T05:29:41;17.30;;;9.10;;
21084;SDS011;72320;50.082;20.000;2024-01-30T05:32:07;19.40;;;9.90;;
21084;SDS011;72320;50.082;20.000;2024-01-30T05:34:33;15.10;;;9.90;;
21084;SDS011;72320;50.082;20.000;2024-01-30T05:36:58;17.40;;;9.90;;
21084;SDS011;72320;50.082;20.000;2024-01-30T05:39:24;17.90;;;9.80;;
21084;SDS011;72320;50.082;20.000;2024-01-30T05:41:50;16.30;;;10.50;;
21084;SDS011;72320;50.082;20.000;2024-01-30T05:44:16;21.50;;;10.80;;
21084;SDS011;72320;50.082;20.000;2024-01-30T05:46:42;24.00;;;10.60;;
21084;SDS011;72320;50.082;20.000;2024-01-30T05:49:08;20.50;;;11.30;;
21084;SDS011;72320;50.082;20.000;2024-01-30T05:51:33;14.80;;;10.10;;
21084;SDS011;72320;50.082;20.000;2024-01-30T05:53:59;19.20;;;9.90;;
21084;SDS011;72320;50.082;20.000;2024-01-30T05:56:25;21.90;;;11.40;;
21084;SDS011;72320;50.082;20.000;2024-01-30T05:58:51;22.20;;;10.90;;
21084;SDS011;72320;50.082;20.000;2024-01-30T06:01:17;21.80;;;10.90;;
21084;SDS011;72320;50.082;20.000;2024-01-30T06:03:43;22.90;;;11.50;;
21084;SDS011;72320;50.082;20.000;2024-01-30T06:06:09;19.10;;;10.70;;
21084;SDS011;72320;50.082;20.000;2024-01-30T06:08:35;19.80;;;11.30;;
21084;SDS011;72320;50.082;20.000;2024-01-30T06:11:00;18.10;;;10.70;;
21084;SDS011;72320;50.082;20.000;2024-01-30T06:13:27;16.40;;;10.40;;
21084;SDS011;72320;50.082;20.000;2024-01-30T06:15:52;23.70;;;10.70;;
21084;SDS011;72320;50.082;20.000;2024-01-30T06:18:18;21.90;;;12.10;;
21084;SDS011;72320;50.082;20.000;2024-01-30T06:20:44;20.90;;;10.00;;
21084;SDS011;72320;50.082;20.000;2024-01-30T06:23:10;20.90;;;13.20;;
21084;SDS011;72320;50.082;20.000;2024-01-30T06:25:38;18.80;;;11.60;;
21084;SDS011;72320;50.082;20.000;2024-01-30T06:28:04;17.70;;;10.90;;
21084;SDS011;72320;50.082;20.000;2024-01-30T06:30:30;20.90;;;12.00;;
21084;SDS011;72320;50.082;20.000;2024-01-30T06:32:56;21.90;;;10.80;;
21084;SDS011;72320;50.082;20.000;2024-01-30T06:35:22;18.30;;;11.80;;
21084;SDS011;72320;50.082;20.000;2024-01-30T06:37:47;20.50;;;11.60;;
21084;SDS011;72320;50.082;20.000;2024-01-30T06:40:13;16.50;;;9.20;;
21084;SDS011;72320;50.082;20.000;2024-01-30T06:42:39;18.10;;;10.10;;
21084;SDS011;72320;50.082;20.000;2024-01-30T06:45:05;14.40;;;9.90;;
21084;SDS011;72320;50.082;20.000;2024-01-30T06:47:31;15.90;;;10.50;;
21084;SDS011;72320;50.082;20.000;2024-01-30T06:49:57;21.40;;;11.90;;
21084;SDS011;72320;50.082;20.000;2024-01-30T06:52:23;22.20;;;12.40;;
21084;SDS011;72320;50.082;20.000;2024-01-30T06:54:49;19.10;;;9.80;;
21084;SDS011;72320;50.082;20.000;2024-01-30T06:57:20;24.70;;;11.90;;
21084;SDS011;72320;50.082;20.000;2024-01-30T06:59:46;16.90;;;9.90;;
21084;SDS011;72320;50.082;20.000;2024-01-30T07:02:12;26.20;;;11.80;;
21084;SDS011;72320;50.082;20.000;2024-01-30T07:04:38;17.80;;;9.80;;
21084;SDS011;72320;50.082;20.000;2024-01-30T07:07:04;21.30;;;12.70;;
21084;SDS011;72320;50.082;20.000;2024-01-30T07:09:31;23.10;;;12.90;;
21084;SDS011;72320;50.082;20.000;2024-01-30T07:11:57;21.40;;;11.30;;
21084;SDS011;72320;50.082;20.000;2024-01-30T07:14:24;21.80;;;11.20;;
21084;SDS011;72320;50.082;20.000;2024-01-30T07:16:51;22.40;;;11.50;;
21084;SDS011;72320;50.082;20.000;2024-01-30T07:19:16;24.70;;;12.10;;
21084;SDS011;72320;50.082;20.000;2024-01-30T07:21:42;24.80;;;12.40;;
21084;SDS011;72320;50.082;20.000;2024-01-30T07:24:08;24.50;;;12.30;;
21084;SDS011;72320;50.082;20.000;2024-01-30T07:26:34;24.00;;;12.70;;
21084;SDS011;72320;50.082;20.000;2024-01-30T07:29:01;21.70;;;11.40;;
21084;SDS011;72320;50.082;20.000;2024-01-30T07:31:27;29.60;;;13.90;;
21084;SDS011;72320;50.082;20.000;2024-01-30T07:33:52;29.40;;;13.10;;
21084;SDS011;72320;50.082;20.000;2024-01-30T07:36:19;26.30;;;12.30;;
21084;SDS011;72320;50.082;20.000;2024-01-30T07:38:45;23.40;;;11.40;;
21084;SDS011;72320;50.082;20.000;2024-01-30T07:41:11;28.00;;;13.40;;
21084;SDS011;72320;50.082;20.000;2024-01-30T07:43:38;27.20;;;12.60;;
21084;SDS011;72320;50.082;20.000;2024-01-30T07:46:04;17.80;;;11.20;;
21084;SDS011;72320;50.082;20.000;2024-01-30T07:48:33;22.80;;;12.60;;
21084;SDS011;72320;50.082;20.000;2024-01-30T07:50:59;21.20;;;11.80;;
21084;SDS011;72320;50.082;20.000;2024-01-30T07:53:25;26.90;;;13.30;;
21084;SDS011;72320;50.082;20.000;2024-01-30T07:55:52;32.00;;;13.60;;
21084;SDS011;72320;50.082;20.000;2024-01-30T07:58:18;26.00;;;12.80;;
21084;SDS011;72320;50.082;20.000;2024-01-30T08:00:44;25.90;;;13.30;;
21084;SDS011;72320;50.082;20.000;2024-01-30T08:03:10;27.40;;;11.80;;
21084;SDS011;72320;50.082;20.000;2024-01-30T08:05:36;23.00;;;13.60;;
21084;SDS011;72320;50.082;20.000;2024-01-30T08:08:03;24.20;;;12.20;;
21084;SDS011;72320;50.082;20.000;2024-01-30T08:10:29;26.10;;;12.90;;
21084;SDS011;72320;50.082;20.000;2024-01-30T08:12:55;16.30;;;9.80;;
21084;SDS011;72320;50.082;20.000;2024-01-30T08:15:21;21.80;;;12.20;;
21084;SDS011;72320;50.082;20.000;2024-01-30T08:17:46;24.20;;;12.80;;
21084;SDS011;72320;50.082;20.000;2024-01-30T08:20:12;25.70;;;12.60;;
21084;SDS011;72320;50.082;20.000;2024-01-30T08:22:39;21.70;;;12.80;;
21084;SDS011;72320;50.082;20.000;2024-01-30T08:25:08;27.20;;;12.90;;
21084;SDS011;72320;50.082;20.000;2024-01-30T08:27:35;22.30;;;12.10;;
21084;SDS011;72320;50.082;20.000;2024-01-30T08:30:05;22.10;;;11.60;;
21084;SDS011;72320;50.082;20.000;2024-01-30T08:32:32;22.50;;;11.60;;
21084;SDS011;72320;50.082;20.000;2024-01-30T08:34:59;18.00;;;11.50;;
21084;SDS011;72320;50.082;20.000;2024-01-30T08:37:25;21.10;;;12.10;;
21084;SDS011;72320;50.082;20.000;2024-01-30T08:39:51;24.50;;;11.90;;
21084;SDS011;72320;50.082;20.000;2024-01-30T08:42:16;26.80;;;12.30;;
21084;SDS011;72320;50.082;20.000;2024-01-30T08:44:48;15.40;;;8.40;;
21084;SDS011;72320;50.082;20.000;2024-01-30T08:47:15;19.00;;;10.80;;
21084;SDS011;72320;50.082;20.000;2024-01-30T08:49:43;28.50;;;11.00;;
21084;SDS011;72320;50.082;20.000;2024-01-30T08:52:10;26.00;;;10.70;;
21084;SDS011;72320;50.082;20.000;2024-01-30T08:54:36;23.30;;;11.20;;
21084;SDS011;72320;50.082;20.000;2024-01-30T08:57:02;18.00;;;9.80;;
21084;SDS011;72320;50.082;20.000;2024-01-30T08:59:29;17.80;;;9.50;;
21084;SDS011;72320;50.082;20.000;2024-01-30T09:01:55;22.80;;;10.00;;
21084;SDS011;72320;50.082;20.000;2024-01-30T09:04:23;13.10;;;8.00;;
21084;SDS011;72320;50.082;20.000;2024-01-30T09:06:49;18.30;;;9.70;;
21084;SDS011;72320;50.082;20.000;2024-01-30T09:09:15;20.40;;;9.60;;
21084;SDS011;72320;50.082;20.000;2024-01-30T09:11:42;19.40;;;9.50;;
21084;SDS011;72320;50.082;20.000;2024-01-30T09:14:08;14.30;;;8.20;;
21084;SDS011;72320;50.082;20.000;2024-01-30T09:16:34;17.40;;;7.60;;
21084;SDS011;72320;50.082;20.000;2024-01-30T09:19:01;22.20;;;9.90;;
21084;SDS011;72320;50.082;20.000;2024-01-30T09:21:27;16.50;;;8.40;;
21084;SDS011;72320;50.082;20.000;2024-01-30T09:24:02;9.40;;;6.90;;
21084;SDS011;72320;50.082;20.000;2024-01-30T09:26:31;12.90;;;7.60;;
21084;SDS011;72320;50.082;20.000;2024-01-30T09:28:57;13.20;;;8.20;;
21084;SDS011;72320;50.082;20.000;2024-01-30T09:31:22;12.50;;;7.30;;
21084;SDS011;72320;50.082;20.000;2024-01-30T09:33:48;19.00;;;8.80;;
21084;SDS011;72320;50.082;20.000;2024-01-30T09:36:14;14.90;;;8.10;;
21084;SDS011;72320;50.082;20.000;2024-01-30T09:38:45;16.10;;;8.10;;
21084;SDS011;72320;50.082;20.000;2024-01-30T09:41:12;13.60;;;7.20;;
21084;SDS011;72320;50.082;20.000;2024-01-30T09:43:39;18.70;;;8.60;;
21084;SDS011;72320;50.082;20.000;2024-01-30T09:46:12;15.60;;;8.10;;
21084;SDS011;72320;50.082;20.000;2024-01-30T09:48:41;15.80;;;8.40;;
21084;SDS011;72320;50.082;20.000;2024-01-30T09:51:09;16.00;;;8.80;;
21084;SDS011;72320;50.082;20.000;2024-01-30T09:53:36;16.20;;;8.30;;
21084;SDS011;72320;50.082;20.000;2024-01-30T09:56:04;16.40;;;8.00;;
21084;SDS011;72320;50.082;20.000;2024-01-30T09:58:30;9.60;;;6.20;;
21084;SDS011;72320;50.082;20.000;2024-01-30T10:00:56;20.40;;;6.70;;
21084;SDS011;72320;50.082;20.000;2024-01-30T10:03:22;8.90;;;5.40;;
21084;SDS011;72320;50.082;20.000;2024-01-30T10:05:51;13.00;;;6.40;;
21084;SDS011;72320;50.082;20.000;2024-01-30T10:08:20;19.40;;;6.90;;
21084;SDS011;72320;50.082;20.000;2024-01-30T10:10:47;12.60;;;6.60;;
21084;SDS011;72320;50.082;20.000;2024-01-30T10:13:13;16.10;;;7.20;;
21084;SDS011;72320;50.082;20.000;2024-01-30T10:15:39;10.40;;;6.60;;
21084;SDS011;72320;50.082;20.000;2024-01-30T10:18:06;15.70;;;7.50;;
21084;SDS011;72320;50.082;20.000;2024-01-30T10:20:32;11.00;;;5.90;;
21084;SDS011;72320;50.082;20.000;2024-01-30T10:22:59;12.20;;;7.50;;
21084;SDS011;72320;50.082;20.000;2024-01-30T10:25:25;12.80;;;7.00;;
21084;SDS011;72320;50.082;20.000;2024-01-30T10:27:55;11.40;;;6.90;;
21084;SDS011;72320;50.082;20.000;2024-01-30T10:30:22;7.30;;;5.60;;
21084;SDS011;72320;50.082;20.000;2024-01-30T10:32:48;12.90;;;6.70;;
21084;SDS011;72320;50.082;20.000;2024-01-30T10:35:15;14.20;;;7.60;;
21084;SDS011;72320;50.082;20.000;2024-01-30T10:37:43;15.00;;;6.80;;
21084;SDS011;72320;50.082;20.000;2024-01-30T10:40:13;15.60;;;7.40;;
21084;SDS011;72320;50.082;20.000;2024-01-30T10:42:43;12.50;;;6.30;;
21084;SDS011;72320;50.082;20.000;2024-01-30T10:45:11;12.80;;;7.30;;
21084;SDS011;72320;50.082;20.000;2024-01-30T10:47:47;8.00;;;5.70;;
21084;SDS011;72320;50.082;20.000;2024-01-30T10:50:15;11.20;;;5.10;;
21084;SDS011;72320;50.082;20.000;2024-01-30T10:52:42;12.10;;;6.90;;
21084;SDS011;72320;50.082;20.000;2024-01-30T10:55:10;13.80;;;6.30;;
21084;SDS011;72320;50.082;20.000;2024-01-30T10:57:36;13.50;;;6.40;;
21084;SDS011;72320;50.082;20.000;2024-01-30T11:00:08;11.90;;;6.90;;
21084;SDS011;72320;50.082;20.000;2024-01-30T11:02:40;9.90;;;6.20;;
21084;SDS011;72320;50.082;20.000;2024-01-30T11:05:09;11.20;;;6.10;;
21084;SDS011;72320;50.082;20.000;2024-01-30T11:07:36;9.20;;;5.90;;
21084;SDS011;72320;50.082;20.000;2024-01-30T11:10:06;9.50;;;5.40;;
21084;SDS011;72320;50.082;20.000;2024-01-30T11:12:40;13.20;;;6.10;;
21084;SDS011;72320;50.082;20.000;2024-01-30T11:15:15;8.90;;;5.40;;
21084;SDS011;72320;50.082;20.000;2024-01-30T11:23:22;8.60;;;4.60;;
21084;SDS011;72320;50.082;20.000;2024-01-30T11:25:48;8.10;;;5.40;;
21084;SDS011;72320;50.082;20.000;2024-01-30T11:28:23;9.40;;;4.70;;
21084;SDS011;72320;50.082;20.000;2024-01-30T11:30:49;13.60;;;6.20;;
21084;SDS011;72320;50.082;20.000;2024-01-30T11:33:28;9.50;;;5.50;;
21084;SDS011;72320;50.082;20.000;2024-01-30T11:35:58;14.10;;;6.40;;
21084;SDS011;72320;50.082;20.000;2024-01-30T11:38:33;10.80;;;6.20;;
21084;SDS011;72320;50.082;20.000;2024-01-30T11:41:00;10.40;;;5.80;;
21084;SDS011;72320;50.082;20.000;2024-01-30T11:43:26;11.10;;;6.20;;
21084;SDS011;72320;50.082;20.000;2024-01-30T11:45:52;11.30;;;6.10;;
21084;SDS011;72320;50.082;20.000;2024-01-30T11:48:17;11.00;;;6.10;;
21084;SDS011;72320;50.082;20.000;2024-01-30T11:50:44;13.40;;;6.20;;
21084;SDS011;72320;50.082;20.000;2024-01-30T11:53:10;11.00;;;6.30;;
21084;SDS011;72320;50.082;20.000;2024-01-30T11:55:36;9.70;;;5.30;;
21084;SDS011;72320;50.082;20.000;2024-01-30T11:58:03;6.80;;;4.10;;
21084;SDS011;72320;50.082;20.000;2024-01-30T12:00:32;10.80;;;5.60;;
21084;SDS011;72320;50.082;20.000;2024-01-30T12:02:58;11.70;;;5.90;;
21084;SDS011;72320;50.082;20.000;2024-01-30T12:05:26;15.60;;;6.40;;
21084;SDS011;72320;50.082;20.000;2024-01-30T12:07:53;11.10;;;5.90;;
21084;SDS011;72320;50.082;20.000;2024-01-30T12:10:19;8.40;;;5.40;;
21084;SDS011;72320;50.082;20.000;2024-01-30T12:12:47;13.10;;;6.00;;
21084;SDS011;72320;50.082;20.000;2024-01-30T12:15:15;9.50;;;5.00;;
21084;SDS011;72320;50.082;20.000;2024-01-30T12:17:42;10.30;;;5.40;;
21084;SDS011;72320;50.082;20.000;2024-01-30T12:20:11;9.30;;;5.80;;
21084;SDS011;72320;50.082;20.000;2024-01-30T12:22:44;11.80;;;6.00;;
21084;SDS011;72320;50.082;20.000;2024-01-30T12:25:14;10.60;;;4.90;;
21084;SDS011;72320;50.082;20.000;2024-01-30T12:27:46;8.40;;;5.10;;
21084;SDS011;72320;50.082;20.000;2024-01-30T12:30:16;11.10;;;5.30;;
21084;SDS011;72320;50.082;20.000;2024-01-30T12:32:44;10.30;;;5.50;;
21084;SDS011;72320;50.082;20.000;2024-01-30T12:35:12;5.90;;;4.50;;
21084;SDS011;72320;50.082;20.000;2024-01-30T12:37:40;7.20;;;4.50;;
21084;SDS011;72320;50.082;20.000;2024-01-30T12:40:08;9.80;;;4.80;;
21084;SDS011;72320;50.082;20.000;2024-01-30T12:42:35;10.60;;;5.00;;
21084;SDS011;72320;50.082;20.000;2024-01-30T12:45:05;7.50;;;4.00;;
21084;SDS011;72320;50.082;20.000;2024-01-30T12:47:31;11.00;;;4.90;;
21084;SDS011;72320;50.082;20.000;2024-01-30T12:49:58;11.30;;;5.30;;
21084;SDS011;72320;50.082;20.000;2024-01-30T12:52:24;14.80;;;5.20;;
21084;SDS011;72320;50.082;20.000;2024-01-30T12:54:51;11.30;;;5.60;;
21084;SDS011;72320;50.082;20.000;2024-01-30T12:57:18;12.30;;;5.30;;
21084;SDS011;72320;50.082;20.000;2024-01-30T12:59:44;11.40;;;5.30;;
21084;SDS011;72320;50.082;20.000;2024-01-30T13:02:12;9.10;;;4.90;;
21084;SDS011;72320;50.082;20.000;2024-01-30T13:04:39;9.20;;;5.30;;
21084;SDS011;72320;50.082;20.000;2024-01-30T13:07:05;8.70;;;4.50;;
21084;SDS011;72320;50.082;20.000;2024-01-30T13:09:31;7.50;;;4.50;;
21084;SDS011;72320;50.082;20.000;2024-01-30T13:11:58;12.10;;;5.40;;
21084;SDS011;72320;50.082;20.000;2024-01-30T13:14:25;7.70;;;4.90;;
21084;SDS011;72320;50.082;20.000;2024-01-30T13:16:52;9.40;;;4.60;;
21084;SDS011;72320;50.082;20.000;2024-01-30T13:19:18;10.60;;;5.10;;
21084;SDS011;72320;50.082;20.000;2024-01-30T13:21:44;9.30;;;4.90;;
21084;SDS011;72320;50.082;20.000;2024-01-30T13:24:10;17.30;;;6.60;;
21084;SDS011;72320;50.082;20.000;2024-01-30T13:26:36;11.50;;;5.80;;
21084;SDS011;72320;50.082;20.000;2024-01-30T13:29:02;12.00;;;5.60;;
21084;SDS011;72320;50.082;20.000;2024-01-30T13:31:30;11.80;;;5.60;;
21084;SDS011;72320;50.082;20.000;2024-01-30T13:33:56;8.70;;;4.50;;
21084;SDS011;72320;50.082;20.000;2024-01-30T13:36:22;12.50;;;6.30;;
21084;SDS011;72320;50.082;20.000;2024-01-30T13:38:48;14.50;;;6.50;;
21084;SDS011;72320;50.082;20.000;2024-01-30T13:41:14;14.10;;;6.50;;
21084;SDS011;72320;50.082;20.000;2024-01-30T13:43:40;15.10;;;7.20;;
21084;SDS011;72320;50.082;20.000;2024-01-30T13:46:06;23.40;;;9.70;;
21084;SDS011;72320;50.082;20.000;2024-01-30T13:48:32;19.50;;;11.60;;
21084;SDS011;72320;50.082;20.000;2024-01-30T13:50:57;18.60;;;11.40;;
21084;SDS011;72320;50.082;20.000;2024-01-30T13:53:23;17.70;;;9.00;;
21084;SDS011;72320;50.082;20.000;2024-01-30T13:55:49;21.60;;;9.50;;
21084;SDS011;72320;50.082;20.000;2024-01-30T13:58:15;22.30;;;11.60;;
21084;SDS011;72320;50.082;20.000;2024-01-30T14:00:41;21.90;;;11.20;;
21084;SDS011;72320;50.082;20.000;2024-01-30T14:03:07;22.10;;;10.80;;
21084;SDS011;72320;50.082;20.000;2024-01-30T14:05:32;16.70;;;9.40;;
21084;SDS011;72320;50.082;20.000;2024-01-30T14:07:59;22.80;;;10.70;;
21084;SDS011;72320;50.082;20.000;2024-01-30T14:10:25;15.70;;;9.20;;
21084;SDS011;72320;50.082;20.000;2024-01-30T14:12:51;18.20;;;10.50;;
21084;SDS011;72320;50.082;20.000;2024-01-30T14:15:17;21.20;;;12.60;;
21084;SDS011;72320;50.082;20.000;2024-01-30T14:17:44;19.70;;;10.70;;